createdAt,value
2019-05-05T00:01:05.120Z,96.6903
2019-05-05T00:02:08.919Z,97.4319
2019-05-05T00:03:14.738Z,97.3388
2019-05-05T00:04:17.761Z,97.2152
2019-05-05T00:05:20.892Z,97.7554
2019-05-05T00:06:25.075Z,98.3047
2019-05-05T00:07:28.841Z,98.5489
2019-05-05T00:08:31.854Z,98.5290
2019-05-05T00:09:36.830Z,98.7778
2019-05-05T00:10:39.893Z,98.3047
2019-05-05T00:11:44.447Z,97.9034
2019-05-05T00:12:47.934Z,97.8378
2019-05-05T00:13:51.892Z,97.8057
2019-05-05T00:14:55.877Z,97.5463
2019-05-05T00:15:59.550Z,97.5647
2019-05-05T00:17:05.224Z,97.1649
2019-05-05T00:18:08.851Z,97.2107
2019-05-05T00:19:11.848Z,97.4594
2019-05-05T00:20:14.832Z,97.6272
2019-05-05T00:21:17.852Z,97.5921
2019-05-05T00:22:21.166Z,97.5860
2019-05-05T00:23:25.206Z,97.5509
2019-05-05T00:24:28.852Z,97.7234
2019-05-05T00:25:34.309Z,98.2132
2019-05-05T00:26:37.190Z,98.2147
2019-05-05T00:27:40.205Z,98.3978
2019-05-05T00:28:44.822Z,98.6343
2019-05-05T00:29:48.194Z,98.6358
2019-05-05T00:30:51.825Z,98.7228
2019-05-05T00:31:54.844Z,98.7259
2019-05-05T00:32:57.781Z,98.6084
2019-05-05T00:34:01.999Z,98.8235
2019-05-05T00:35:05.774Z,98.7366
2019-05-05T00:36:10.085Z,98.7320
2019-05-05T00:37:15.190Z,98.6481
2019-05-05T00:38:18.847Z,98.5657
2019-05-05T00:39:21.875Z,98.5168
2019-05-05T00:40:25.087Z,98.5122
2019-05-05T00:41:28.838Z,98.5702
2019-05-05T00:42:31.874Z,98.7396
2019-05-05T00:43:34.853Z,98.5855
2019-05-05T00:44:37.779Z,98.4924
2019-05-05T00:45:40.900Z,98.6526
2019-05-05T00:46:44.708Z,98.7259
2019-05-05T00:47:47.921Z,98.6938
2019-05-05T00:48:51.895Z,98.8495
2019-05-05T00:49:56.285Z,99.0890
2019-05-05T00:50:59.893Z,99.2218
2019-05-05T00:52:05.128Z,99.4308
2019-05-05T00:53:08.915Z,99.4873
2019-05-05T00:54:14.738Z,99.6643
2019-05-05T00:55:18.880Z,99.7711
2019-05-05T00:56:21.885Z,99.9451
2019-05-05T00:57:25.868Z,100.0000
2019-05-05T00:58:28.870Z,100.0000
2019-05-05T00:59:32.138Z,100.0000
2019-05-05T01:00:35.850Z,100.0000
2019-05-05T01:01:38.909Z,100.0000
2019-05-05T01:02:44.805Z,100.0000
2019-05-05T01:03:49.173Z,100.0000
2019-05-05T01:04:54.974Z,100.0000
2019-05-05T01:05:58.192Z,100.0000
2019-05-05T01:07:01.195Z,100.0000
2019-05-05T01:08:05.129Z,100.0000
2019-05-05T01:09:08.178Z,100.0000
2019-05-05T01:10:11.188Z,100.0000
2019-05-05T01:11:14.557Z,100.0000
2019-05-05T01:12:17.874Z,100.0000
2019-05-05T01:13:20.863Z,100.0000
2019-05-05T01:14:24.963Z,100.0000
2019-05-05T01:15:28.756Z,100.0000
2019-05-05T01:16:31.843Z,100.0000
2019-05-05T01:17:34.858Z,100.0000
2019-05-05T01:18:37.864Z,100.0000
2019-05-05T01:19:40.825Z,100.0000
2019-05-05T01:20:44.858Z,100.0000
2019-05-05T01:21:49.078Z,100.0000
2019-05-05T01:22:51.825Z,100.0000
2019-05-05T01:23:54.973Z,100.0000
2019-05-05T01:24:58.824Z,100.0000
2019-05-05T01:26:01.829Z,100.0000
2019-05-05T01:27:04.872Z,100.0000
2019-05-05T01:28:07.841Z,100.0000
2019-05-05T01:29:10.911Z,100.0000
2019-05-05T01:30:15.198Z,100.0000
2019-05-05T01:31:18.869Z,100.0000
2019-05-05T01:32:21.796Z,100.0000
2019-05-05T01:33:25.064Z,100.0000
2019-05-05T01:34:28.882Z,100.0000
2019-05-05T01:35:34.239Z,100.0000
2019-05-05T01:36:37.832Z,100.0000
2019-05-05T01:37:40.781Z,100.0000
2019-05-05T01:38:44.683Z,100.0000
2019-05-05T01:39:47.865Z,100.0000
2019-05-05T01:40:50.769Z,100.0000
2019-05-05T01:41:54.350Z,100.0000
2019-05-05T01:42:57.893Z,100.0000
2019-05-05T01:44:01.096Z,100.0000
2019-05-05T01:45:04.865Z,100.0000
2019-05-05T01:46:07.093Z,100.0000
2019-05-05T01:47:10.864Z,100.0000
2019-05-05T01:48:14.258Z,100.0000
2019-05-05T01:49:17.785Z,100.0000
2019-05-05T01:50:21.368Z,100.0000
2019-05-05T01:51:27.091Z,100.0000
2019-05-05T01:52:30.165Z,100.0000
2019-05-05T01:53:34.953Z,100.0000
2019-05-05T01:54:38.200Z,100.0000
2019-05-05T01:55:41.870Z,100.0000
2019-05-05T01:56:44.835Z,100.0000
2019-05-05T01:57:48.767Z,100.0000
2019-05-05T01:58:51.768Z,100.0000
2019-05-05T01:59:55.227Z,100.0000
2019-05-05T02:00:58.722Z,100.0000
2019-05-05T02:02:01.875Z,100.0000
2019-05-05T02:03:04.901Z,100.0000
2019-05-05T02:04:08.814Z,100.0000
2019-05-05T02:05:11.793Z,100.0000
2019-05-05T02:06:14.783Z,100.0000
2019-05-05T02:07:17.792Z,100.0000
2019-05-05T02:08:20.811Z,100.0000
2019-05-05T02:09:25.005Z,100.0000
2019-05-05T02:10:28.914Z,100.0000
2019-05-05T02:11:35.162Z,100.0000
2019-05-05T02:12:38.820Z,100.0000
2019-05-05T02:13:41.796Z,100.0000
2019-05-05T02:14:44.935Z,100.0000
2019-05-05T02:15:48.892Z,100.0000
2019-05-05T02:16:54.617Z,100.0000
2019-05-05T02:17:57.830Z,100.0000
2019-05-05T02:19:00.856Z,100.0000
2019-05-05T02:20:05.256Z,100.0000
2019-05-05T02:21:08.865Z,100.0000
2019-05-05T02:22:12.078Z,100.0000
2019-05-05T02:23:16.026Z,100.0000
2019-05-05T02:24:19.887Z,100.0000
2019-05-05T02:25:22.799Z,100.0000
2019-05-05T02:26:25.851Z,100.0000
2019-05-05T02:27:28.875Z,100.0000
2019-05-05T02:28:32.245Z,100.0000
2019-05-05T02:29:35.812Z,100.0000
2019-05-05T02:30:38.858Z,100.0000
2019-05-05T02:31:41.823Z,100.0000
2019-05-05T02:32:45.326Z,100.0000
2019-05-05T02:33:49.226Z,100.0000
2019-05-05T02:34:55.932Z,100.0000
2019-05-05T02:35:59.842Z,100.0000
2019-05-05T02:37:05.267Z,100.0000
2019-05-05T02:38:08.184Z,100.0000
2019-05-05T02:39:11.198Z,100.0000
2019-05-05T02:40:16.252Z,100.0000
2019-05-05T02:41:19.198Z,100.0000
2019-05-05T02:42:24.779Z,100.0000
2019-05-05T02:43:28.734Z,100.0000
2019-05-05T02:44:31.183Z,100.0000
2019-05-05T02:45:35.295Z,100.0000
2019-05-05T02:46:38.804Z,100.0000
2019-05-05T02:47:40.820Z,100.0000
2019-05-05T02:48:45.039Z,100.0000
2019-05-05T02:49:48.886Z,100.0000
2019-05-05T02:51:00.744Z,100.0000
2019-05-05T02:52:00.828Z,100.0000
2019-05-05T02:53:04.207Z,100.0000
2019-05-05T02:54:07.864Z,100.0000
2019-05-05T02:55:10.879Z,100.0000
2019-05-05T02:56:14.660Z,100.0000
2019-05-05T02:57:17.819Z,100.0000
2019-05-05T02:58:20.798Z,100.0000
2019-05-05T02:59:23.920Z,100.0000
2019-05-05T03:00:27.879Z,100.0000
2019-05-05T03:01:33.902Z,100.0000
2019-05-05T03:02:37.797Z,100.0000
2019-05-05T03:03:43.844Z,100.0000
2019-05-05T03:04:49.961Z,100.0000
2019-05-05T03:05:53.915Z,100.0000
2019-05-05T03:06:57.832Z,100.0000
2019-05-05T03:08:00.843Z,100.0000
2019-05-05T03:09:04.450Z,100.0000
2019-05-05T03:10:07.793Z,100.0000
2019-05-05T03:11:10.799Z,100.0000
2019-05-05T03:12:14.909Z,100.0000
2019-05-05T03:13:20.848Z,100.0000
2019-05-05T03:14:23.669Z,100.0000
2019-05-05T03:15:26.850Z,100.0000
2019-05-05T03:16:30.140Z,100.0000
2019-05-05T03:17:34.097Z,100.0000
2019-05-05T03:18:36.354Z,100.0000
2019-05-05T03:19:39.193Z,100.0000
2019-05-05T03:20:43.587Z,100.0000
2019-05-05T03:21:46.173Z,100.0000
2019-05-05T03:22:49.162Z,100.0000
2019-05-05T03:23:52.179Z,100.0000
2019-05-05T03:24:55.187Z,100.0000
2019-05-05T03:25:58.186Z,100.0000
2019-05-05T03:27:01.175Z,100.0000
2019-05-05T03:28:04.725Z,100.0000
2019-05-05T03:29:07.798Z,100.0000
2019-05-05T03:30:10.791Z,100.0000
2019-05-05T03:31:15.875Z,100.0000
2019-05-05T03:32:19.752Z,100.0000
2019-05-05T03:33:24.987Z,100.0000
2019-05-05T03:34:28.795Z,100.0000
2019-05-05T03:35:31.814Z,100.0000
2019-05-05T03:36:34.942Z,100.0000
2019-05-05T03:37:38.838Z,100.0000
2019-05-05T03:38:41.786Z,100.0000
2019-05-05T03:39:44.829Z,100.0000
2019-05-05T03:40:47.844Z,100.0000
2019-05-05T03:41:50.862Z,100.0000
2019-05-05T03:42:53.894Z,100.0000
2019-05-05T03:43:57.850Z,100.0000
2019-05-05T03:45:00.833Z,100.0000
2019-05-05T03:46:04.449Z,100.0000
2019-05-05T03:47:07.817Z,100.0000
2019-05-05T03:48:10.815Z,100.0000
2019-05-05T03:49:14.149Z,100.0000
2019-05-05T03:50:17.851Z,100.0000
2019-05-05T03:51:24.218Z,100.0000
2019-05-05T03:52:27.850Z,100.0000
2019-05-05T03:53:30.837Z,100.0000
2019-05-05T03:54:34.350Z,100.0000
2019-05-05T03:55:37.844Z,100.0000
2019-05-05T03:56:40.783Z,100.0000
2019-05-05T03:57:44.472Z,100.0000
2019-05-05T03:58:46.858Z,100.0000
2019-05-05T03:59:49.847Z,100.0000
2019-05-05T04:00:54.814Z,100.0000
2019-05-05T04:01:57.797Z,100.0000
2019-05-05T04:03:00.797Z,100.0000
2019-05-05T04:04:04.149Z,100.0000
2019-05-05T04:05:07.813Z,100.0000
2019-05-05T04:06:10.760Z,100.0000
2019-05-05T04:07:14.034Z,100.0000
2019-05-05T04:08:17.824Z,100.0000
2019-05-05T04:09:20.190Z,100.0000
2019-05-05T04:10:24.462Z,100.0000
2019-05-05T04:11:27.192Z,100.0000
2019-05-05T04:12:30.191Z,100.0000
2019-05-05T04:13:33.986Z,100.0000
2019-05-05T04:14:37.759Z,100.0000
2019-05-05T04:15:39.202Z,100.0000
2019-05-05T04:16:43.481Z,100.0000
2019-05-05T04:17:46.714Z,100.0000
2019-05-05T04:18:49.726Z,100.0000
2019-05-05T04:19:54.195Z,100.0000
2019-05-05T04:20:57.776Z,100.0000
2019-05-05T04:22:00.729Z,100.0000
2019-05-05T04:23:03.710Z,100.0000
2019-05-05T04:24:07.838Z,100.0000
2019-05-05T04:25:10.818Z,100.0000
2019-05-05T04:26:14.324Z,100.0000
2019-05-05T04:27:17.802Z,100.0000
2019-05-05T04:28:20.793Z,100.0000
2019-05-05T04:29:24.439Z,100.0000
2019-05-05T04:30:27.828Z,100.0000
2019-05-05T04:31:30.868Z,100.0000
2019-05-05T04:32:34.829Z,100.0000
2019-05-05T04:33:38.891Z,100.0000
2019-05-05T04:34:43.825Z,100.0000
2019-05-05T04:35:48.203Z,100.0000
2019-05-05T04:36:50.910Z,100.0000
2019-05-05T04:37:54.863Z,100.0000
2019-05-05T04:38:57.834Z,100.0000
2019-05-05T04:40:00.943Z,100.0000
2019-05-05T04:41:05.119Z,100.0000
2019-05-05T04:42:08.814Z,100.0000
2019-05-05T04:43:10.993Z,100.0000
2019-05-05T04:44:17.878Z,100.0000
2019-05-05T04:45:23.883Z,100.0000
2019-05-05T04:46:28.135Z,100.0000
2019-05-05T04:47:34.161Z,100.0000
2019-05-05T04:48:37.813Z,100.0000
2019-05-05T04:49:40.887Z,100.0000
2019-05-05T04:50:44.237Z,99.9084
2019-05-05T04:51:49.989Z,99.6384
2019-05-05T04:52:54.177Z,99.7391
2019-05-05T04:53:57.187Z,99.8474
2019-05-05T04:55:00.191Z,99.7162
2019-05-05T04:56:04.184Z,99.6780
2019-05-05T04:57:07.206Z,99.6918
2019-05-05T04:58:10.733Z,99.6750
2019-05-05T04:59:14.419Z,99.5727
2019-05-05T05:00:17.822Z,99.5087
2019-05-05T05:01:28.969Z,99.5148
2019-05-05T05:02:34.122Z,99.4919
2019-05-05T05:03:37.948Z,99.2355
2019-05-05T05:04:41.816Z,99.1073
2019-05-05T05:05:44.815Z,98.9181
2019-05-05T05:06:47.920Z,98.8464
2019-05-05T05:07:51.911Z,99.0188
2019-05-05T05:08:55.844Z,99.0143
2019-05-05T05:09:58.815Z,98.9410
2019-05-05T05:11:03.686Z,98.9502
2019-05-05T05:12:06.973Z,98.8907
2019-05-05T05:13:11.202Z,98.1949
2019-05-05T05:14:14.827Z,98.3825
2019-05-05T05:15:16.942Z,98.5336
2019-05-05T05:16:20.927Z,98.2605
2019-05-05T05:17:26.931Z,98.1125
2019-05-05T05:18:31.189Z,98.2086
2019-05-05T05:19:34.864Z,98.1491
2019-05-05T05:20:37.831Z,98.3246
2019-05-05T05:21:41.068Z,98.3047
2019-05-05T05:22:44.832Z,98.2376
2019-05-05T05:23:48.308Z,97.9400
2019-05-05T05:24:53.953Z,97.7661
2019-05-05T05:25:56.835Z,97.5097
2019-05-05T05:26:59.848Z,97.4502
2019-05-05T05:28:04.161Z,97.0550
2019-05-05T05:29:08.285Z,97.1527
2019-05-05T05:30:11.212Z,96.7727
2019-05-05T05:31:14.214Z,96.6033
2019-05-05T05:32:16.203Z,96.7575
2019-05-05T05:33:19.207Z,96.7941
2019-05-05T05:34:23.868Z,96.5469
2019-05-05T05:35:28.266Z,96.7590
2019-05-05T05:36:31.205Z,96.8460
2019-05-05T05:37:34.855Z,96.7590
2019-05-05T05:38:37.204Z,97.0138
2019-05-05T05:39:40.744Z,97.3159
2019-05-05T05:40:44.430Z,97.2519
2019-05-05T05:41:46.770Z,97.4136
2019-05-05T05:42:49.767Z,97.3755
2019-05-05T05:43:54.144Z,96.7803
2019-05-05T05:44:57.829Z,96.6018
2019-05-05T05:45:59.943Z,96.8231
2019-05-05T05:47:03.905Z,96.7544
2019-05-05T05:48:07.889Z,97.2259
2019-05-05T05:49:13.396Z,97.5174
2019-05-05T05:50:17.184Z,97.3892
2019-05-05T05:51:20.831Z,97.4395
2019-05-05T05:52:24.367Z,97.1618
2019-05-05T05:53:26.954Z,96.3607
2019-05-05T05:54:30.881Z,96.3012
2019-05-05T05:55:34.464Z,96.6995
2019-05-05T05:56:37.930Z,96.5515
2019-05-05T05:57:43.765Z,96.6522
2019-05-05T05:58:47.906Z,96.6628
2019-05-05T05:59:51.856Z,96.2417
2019-05-05T06:00:55.200Z,96.4111
2019-05-05T06:02:09.198Z,96.2554
2019-05-05T06:03:07.133Z,96.6445
2019-05-05T06:04:10.755Z,96.1349
2019-05-05T06:05:14.804Z,96.3409
2019-05-05T06:06:19.267Z,96.2264
2019-05-05T06:07:24.516Z,96.3912
2019-05-05T06:08:30.052Z,96.3729
2019-05-05T06:09:34.431Z,96.2966
2019-05-05T06:10:36.179Z,96.5469
2019-05-05T06:11:38.196Z,96.0815
2019-05-05T06:12:41.187Z,96.2554
2019-05-05T06:13:47.387Z,96.3638
2019-05-05T06:14:53.571Z,95.2606
2019-05-05T06:15:56.841Z,95.7702
2019-05-05T06:16:59.842Z,95.3521
2019-05-05T06:18:04.622Z,95.8846
2019-05-05T06:19:06.919Z,94.8547
2019-05-05T06:20:10.851Z,94.8684
2019-05-05T06:21:13.959Z,94.2596
2019-05-05T06:22:28.082Z,94.0932
2019-05-05T06:23:25.857Z,93.9101
2019-05-05T06:24:27.878Z,94.4411
2019-05-05T06:25:34.000Z,94.0948
2019-05-05T06:27:10.776Z,94.2122
2019-05-05T06:28:14.555Z,93.3623
2019-05-05T06:29:17.178Z,93.2281
2019-05-05T06:30:19.195Z,93.3196
2019-05-05T06:31:24.436Z,93.8643
2019-05-05T06:32:27.178Z,93.8689
2019-05-05T06:33:30.832Z,94.9126
2019-05-05T06:34:33.985Z,94.5602
2019-05-05T06:35:37.776Z,94.2077
2019-05-05T06:36:40.852Z,92.3140
2019-05-05T06:37:46.614Z,93.5668
2019-05-05T06:38:49.925Z,93.4859
2019-05-05T06:39:54.431Z,94.2122
2019-05-05T06:40:57.832Z,94.1527
2019-05-05T06:42:04.364Z,93.6507
2019-05-05T06:43:07.856Z,93.4569
2019-05-05T06:44:11.136Z,93.8872
2019-05-05T06:45:14.426Z,94.0352
2019-05-05T06:46:17.876Z,93.3425
2019-05-05T06:47:21.150Z,92.8222
2019-05-05T06:48:24.831Z,93.4585
2019-05-05T06:49:27.875Z,93.0404
2019-05-05T06:50:31.844Z,92.8450
2019-05-05T06:51:44.067Z,92.6329
2019-05-05T06:52:47.881Z,93.4813
2019-05-05T06:53:51.281Z,93.8643
2019-05-05T06:55:10.774Z,93.4310
2019-05-05T06:56:14.556Z,94.0200
2019-05-05T06:57:17.180Z,93.1472
2019-05-05T06:58:20.190Z,93.6080
2019-05-05T06:59:24.286Z,92.4865
2019-05-05T07:00:27.766Z,93.4936
2019-05-05T07:01:30.871Z,93.4752
2019-05-05T07:02:34.255Z,92.8710
2019-05-05T07:03:37.781Z,92.7016
2019-05-05T07:04:40.918Z,92.8618
2019-05-05T07:05:44.848Z,92.3552
2019-05-05T07:06:54.199Z,93.5225
2019-05-05T07:07:56.931Z,93.8888
2019-05-05T07:09:00.949Z,94.2275
2019-05-05T07:10:04.862Z,93.8842
2019-05-05T07:11:07.955Z,93.8018
2019-05-05T07:12:13.818Z,93.3608
2019-05-05T07:13:17.912Z,92.8084
2019-05-05T07:14:23.606Z,93.1502
2019-05-05T07:15:26.892Z,92.9168
2019-05-05T07:16:30.933Z,93.2097
2019-05-05T07:17:34.920Z,93.5592
2019-05-05T07:18:38.925Z,94.3038
2019-05-05T07:19:44.940Z,94.9310
2019-05-05T07:20:48.909Z,94.4091
2019-05-05T07:21:53.800Z,94.1772
2019-05-05T07:23:02.080Z,94.0383
2019-05-05T07:24:06.264Z,93.3196
2019-05-05T07:25:10.273Z,92.9686
2019-05-05T07:26:14.437Z,92.7123
2019-05-05T07:27:17.187Z,92.4636
2019-05-05T07:28:20.174Z,92.3232
2019-05-05T07:29:23.900Z,92.9641
2019-05-05T07:30:27.191Z,92.4971
2019-05-05T07:31:30.176Z,92.0470
2019-05-05T07:32:33.803Z,91.8868
2019-05-05T07:33:37.830Z,92.6421
2019-05-05T07:34:40.179Z,93.7087
2019-05-05T07:36:06.428Z,93.0587
2019-05-05T07:37:08.916Z,91.6091
2019-05-05T07:38:13.835Z,91.8639
2019-05-05T07:39:17.892Z,92.1447
2019-05-05T07:40:21.626Z,92.9412
2019-05-05T07:41:24.897Z,91.4855
2019-05-05T07:42:28.958Z,91.9051
2019-05-05T07:43:34.499Z,92.4041
2019-05-05T07:44:37.846Z,92.5231
2019-05-05T07:45:40.935Z,92.4788
2019-05-05T07:46:44.879Z,92.2911
2019-05-05T07:47:48.630Z,92.1538
2019-05-05T07:48:51.907Z,92.6940
2019-05-05T07:49:55.850Z,92.0928
2019-05-05T07:51:02.802Z,92.0485
2019-05-05T07:52:07.252Z,94.4656
2019-05-05T07:53:14.424Z,92.4956
2019-05-05T07:54:17.295Z,92.1935
2019-05-05T07:55:19.176Z,90.7881
2019-05-05T07:56:23.766Z,91.0262
2019-05-05T07:57:26.201Z,90.1610
2019-05-05T07:58:29.188Z,87.3549
2019-05-05T07:59:34.026Z,88.8334
2019-05-05T08:00:37.725Z,89.5033
2019-05-05T08:01:43.262Z,87.1687
2019-05-05T08:02:48.900Z,86.3890
2019-05-05T08:03:53.889Z,86.1341
2019-05-05T08:04:57.858Z,84.7471
2019-05-05T08:06:00.882Z,85.1041
2019-05-05T08:07:04.200Z,81.0010
2019-05-05T08:08:07.935Z,81.6388
2019-05-05T08:09:11.903Z,82.5528
2019-05-05T08:10:15.909Z,80.7813
2019-05-05T08:11:19.833Z,80.1282
2019-05-05T08:12:21.842Z,80.7782
2019-05-05T08:13:24.833Z,79.8382
2019-05-05T08:14:27.879Z,82.4308
2019-05-05T08:15:34.389Z,78.0545
2019-05-05T08:17:04.239Z,81.0758
2019-05-05T08:18:07.177Z,76.9406
2019-05-05T08:19:10.187Z,75.9335
2019-05-05T08:20:14.293Z,77.8607
2019-05-05T08:21:17.173Z,80.8927
2019-05-05T08:22:20.171Z,82.4399
2019-05-05T08:23:30.270Z,79.1974
2019-05-05T08:24:33.637Z,77.6638
2019-05-05T08:25:40.195Z,80.5310
2019-05-05T08:26:44.243Z,76.1807
2019-05-05T08:27:47.890Z,75.5489
2019-05-05T08:28:51.193Z,74.4228
2019-05-05T08:29:54.901Z,76.6674
2019-05-05T08:30:58.939Z,76.8399
2019-05-05T08:32:04.429Z,74.5907
2019-05-05T08:33:06.876Z,72.9793
2019-05-05T08:34:10.671Z,74.7463
2019-05-05T08:35:14.780Z,78.0636
2019-05-05T08:36:17.894Z,78.9136
2019-05-05T08:37:23.498Z,82.1653
2019-05-05T08:38:27.058Z,78.8098
2019-05-05T08:39:30.926Z,81.1429
2019-05-05T08:40:34.900Z,80.1282
2019-05-05T08:41:40.005Z,79.0387
2019-05-05T08:42:44.543Z,80.8682
2019-05-05T08:43:47.815Z,82.8229
2019-05-05T08:44:49.930Z,84.3305
2019-05-05T08:46:14.176Z,84.1779
2019-05-05T08:47:17.185Z,84.8508
2019-05-05T08:48:20.187Z,85.9220
2019-05-05T08:49:24.382Z,87.1412
2019-05-05T08:50:27.308Z,85.5116
2019-05-05T08:51:30.198Z,85.0172
2019-05-05T08:52:34.255Z,83.5660
2019-05-05T08:53:44.984Z,84.1230
2019-05-05T08:55:15.777Z,83.1846
2019-05-05T08:56:18.852Z,83.4730
2019-05-05T08:57:24.864Z,82.0401
2019-05-05T08:58:27.857Z,81.8250
2019-05-05T08:59:30.886Z,81.7945
2019-05-05T09:00:34.103Z,82.2003
2019-05-05T09:01:37.885Z,84.6357
2019-05-05T09:02:43.620Z,84.5029
2019-05-05T09:03:46.953Z,82.3758
2019-05-05T09:04:58.690Z,81.4099
2019-05-05T09:06:01.670Z,82.3697
2019-05-05T09:07:04.991Z,79.5514
2019-05-05T09:08:08.186Z,80.1877
2019-05-05T09:09:11.212Z,79.2523
2019-05-05T09:10:14.357Z,79.5224
2019-05-05T09:11:17.185Z,77.7462
2019-05-05T09:12:20.203Z,75.6405
2019-05-05T09:13:24.686Z,76.2493
2019-05-05T09:14:27.785Z,74.1787
2019-05-05T09:15:30.779Z,74.2397
2019-05-05T09:16:33.791Z,73.8689
2019-05-05T09:17:36.742Z,73.7911
2019-05-05T09:18:39.929Z,76.1578
2019-05-05T09:19:44.899Z,75.0469
2019-05-05T09:20:48.781Z,76.7910
2019-05-05T09:21:54.004Z,75.2712
2019-05-05T09:22:57.360Z,75.5856
2019-05-05T09:24:04.694Z,76.5530
2019-05-05T09:25:08.835Z,77.9385
2019-05-05T09:26:26.958Z,78.2681
2019-05-05T09:27:30.824Z,77.5463
2019-05-05T09:28:34.107Z,77.7157
2019-05-05T09:29:37.768Z,80.2335
2019-05-05T09:30:40.195Z,77.8973
2019-05-05T09:31:45.084Z,78.4848
2019-05-05T09:32:49.119Z,79.5285
2019-05-05T09:33:53.661Z,78.2879
2019-05-05T09:34:56.962Z,78.9685
2019-05-05T09:36:01.216Z,76.7163
2019-05-05T09:37:04.175Z,76.6674
2019-05-05T09:38:07.180Z,78.8220
2019-05-05T09:39:10.179Z,78.4009
2019-05-05T09:40:13.874Z,76.9772
2019-05-05T09:41:17.188Z,75.9335
2019-05-05T09:42:20.195Z,75.7595
2019-05-05T09:43:24.111Z,76.4157
2019-05-05T09:44:27.828Z,77.0794
2019-05-05T09:45:30.908Z,76.0891
2019-05-05T09:46:34.814Z,79.3362
2019-05-05T09:47:37.961Z,76.6217
2019-05-05T09:48:43.886Z,74.4091
2019-05-05T09:49:47.876Z,73.8460
2019-05-05T09:50:51.113Z,74.8745
2019-05-05T09:51:54.976Z,76.0113
2019-05-05T09:52:58.895Z,75.9808
2019-05-05T09:54:13.781Z,75.7916
2019-05-05T09:55:11.225Z,75.8740
2019-05-05T09:56:14.876Z,76.0754
2019-05-05T09:57:18.487Z,75.6451
2019-05-05T09:58:20.885Z,75.5642
2019-05-05T09:59:24.730Z,75.9152
2019-05-05T10:00:27.883Z,74.8928
2019-05-05T10:01:33.794Z,73.4066
2019-05-05T10:02:37.874Z,71.2139
2019-05-05T10:03:40.901Z,71.6564
2019-05-05T10:04:44.256Z,72.7932
2019-05-05T10:05:47.904Z,71.4015
2019-05-05T10:06:51.057Z,72.6833
2019-05-05T10:07:54.813Z,73.5515
2019-05-05T10:08:58.203Z,69.6666
2019-05-05T10:10:01.886Z,76.0250
2019-05-05T10:11:05.900Z,72.3980
2019-05-05T10:12:09.220Z,70.2892
2019-05-05T10:13:14.661Z,71.0491
2019-05-05T10:14:18.203Z,70.6142
2019-05-05T10:15:21.236Z,68.8975
2019-05-05T10:16:24.184Z,68.9326
2019-05-05T10:17:33.662Z,69.2897
2019-05-05T10:18:36.750Z,69.8177
2019-05-05T10:19:39.490Z,68.7282
2019-05-05T10:20:42.834Z,68.3116
2019-05-05T10:21:45.186Z,69.5155
2019-05-05T10:22:48.191Z,71.0353
2019-05-05T10:23:51.186Z,69.8634
2019-05-05T10:24:57.228Z,69.5476
2019-05-05T10:26:01.815Z,69.3462
2019-05-05T10:27:05.260Z,70.4158
2019-05-05T10:28:08.195Z,71.9081
2019-05-05T10:29:13.624Z,73.2647
2019-05-05T10:30:15.977Z,69.5933
2019-05-05T10:31:19.998Z,71.6899
2019-05-05T10:32:24.474Z,69.1768
2019-05-05T10:33:27.867Z,71.9371
2019-05-05T10:34:30.203Z,64.5884
2019-05-05T10:35:34.430Z,67.2587
2019-05-05T10:36:37.834Z,63.0747
2019-05-05T10:37:40.823Z,62.2904
2019-05-05T10:38:44.426Z,62.3362
2019-05-05T10:39:47.803Z,65.3208
2019-05-05T10:40:51.010Z,64.5258
2019-05-05T10:41:56.180Z,66.6712
2019-05-05T10:43:36.814Z,68.8518
2019-05-05T10:44:39.197Z,67.8523
2019-05-05T10:45:43.894Z,69.0974
2019-05-05T10:46:47.193Z,68.9891
2019-05-05T10:47:50.174Z,70.8141
2019-05-05T10:48:53.820Z,73.4920
2019-05-05T10:49:56.802Z,72.5414
2019-05-05T10:50:59.776Z,73.0938
2019-05-05T10:52:03.784Z,72.5185
2019-05-05T10:53:07.899Z,72.1645
2019-05-05T10:54:11.134Z,72.9931
2019-05-05T10:55:14.856Z,71.9081
2019-05-05T10:56:16.875Z,72.6818
2019-05-05T10:57:20.073Z,72.6650
2019-05-05T10:58:24.403Z,73.9605
2019-05-05T10:59:27.810Z,71.9692
2019-05-05T11:00:31.035Z,71.9127
2019-05-05T11:01:34.846Z,73.4661
2019-05-05T11:02:37.841Z,73.0175
2019-05-05T11:03:40.771Z,73.0205
2019-05-05T11:04:44.293Z,73.4874
2019-05-05T11:05:47.871Z,74.2061
2019-05-05T11:06:49.822Z,72.7047
2019-05-05T11:07:53.762Z,75.6054
2019-05-05T11:08:56.807Z,74.2855
2019-05-05T11:09:59.819Z,74.6929
2019-05-05T11:11:04.202Z,73.5805
2019-05-05T11:12:37.937Z,72.2896
2019-05-05T11:13:42.800Z,74.1070
2019-05-05T11:14:48.185Z,73.4600
2019-05-05T11:15:51.190Z,70.9606
2019-05-05T11:16:54.619Z,69.5644
2019-05-05T11:17:57.236Z,66.6941
2019-05-05T11:19:00.179Z,68.4657
2019-05-05T11:20:03.828Z,67.8019
2019-05-05T11:21:06.800Z,67.3365
2019-05-05T11:22:09.750Z,70.1747
2019-05-05T11:23:14.836Z,68.8182
2019-05-05T11:24:18.803Z,70.4204
2019-05-05T11:25:21.913Z,67.5013
2019-05-05T11:26:25.864Z,70.9117
2019-05-05T11:27:28.827Z,68.4306
2019-05-05T11:28:33.771Z,68.1132
2019-05-05T11:29:37.857Z,68.7327
2019-05-05T11:30:42.031Z,72.3064
2019-05-05T11:31:45.897Z,71.4015
2019-05-05T11:32:49.884Z,68.3482
2019-05-05T11:33:54.165Z,67.9362
2019-05-05T11:34:57.896Z,67.5868
2019-05-05T11:36:04.476Z,66.1540
2019-05-05T11:37:07.868Z,69.4545
2019-05-05T11:38:10.868Z,66.0731
2019-05-05T11:39:14.794Z,66.3111
2019-05-05T11:40:18.860Z,66.6819
2019-05-05T11:41:20.872Z,64.2267
2019-05-05T11:42:42.826Z,66.4607
2019-05-05T11:43:45.922Z,66.3661
2019-05-05T11:44:50.066Z,61.1643
2019-05-05T11:45:54.484Z,64.7227
2019-05-05T11:46:57.784Z,58.9593
2019-05-05T11:48:00.745Z,57.9553
2019-05-05T11:49:04.930Z,58.7304
2019-05-05T11:50:08.396Z,62.7817
2019-05-05T11:51:49.964Z,55.4559
2019-05-05T11:53:24.950Z,53.6858
2019-05-05T11:54:28.211Z,54.2565
2019-05-05T11:55:31.187Z,49.1447
2019-05-05T11:56:34.217Z,49.6529
2019-05-05T11:57:40.238Z,53.6950
2019-05-05T11:58:44.342Z,48.8975
2019-05-05T11:59:47.175Z,51.3176
2019-05-05T12:00:54.506Z,50.5898
2019-05-05T12:01:57.807Z,47.2938
2019-05-05T12:03:00.202Z,50.5394
2019-05-05T12:04:04.053Z,53.6934
2019-05-05T12:05:16.882Z,52.6238
2019-05-05T12:06:44.135Z,54.0734
2019-05-05T12:08:10.761Z,55.1171
2019-05-05T12:09:14.103Z,53.2280
2019-05-05T12:10:17.207Z,57.4121
2019-05-05T12:11:20.797Z,59.5132
2019-05-05T12:12:23.763Z,59.1684
2019-05-05T12:13:27.030Z,60.5203
2019-05-05T12:14:30.781Z,60.1755
2019-05-05T12:15:34.201Z,59.4217
2019-05-05T12:16:37.899Z,56.6201
2019-05-05T12:17:43.755Z,58.9914
2019-05-05T12:18:47.805Z,57.9522
2019-05-05T12:19:51.154Z,57.9828
2019-05-05T12:20:54.892Z,58.3810
2019-05-05T12:21:58.096Z,55.5581
2019-05-05T12:23:01.909Z,50.6416
2019-05-05T12:24:05.888Z,50.4036
2019-05-05T12:25:22.545Z,51.6335
2019-05-05T12:26:17.815Z,51.9814
2019-05-05T12:27:20.927Z,50.2464
2019-05-05T12:28:24.856Z,51.5923
2019-05-05T12:29:27.851Z,50.7958
2019-05-05T12:30:30.871Z,48.2200
2019-05-05T12:31:33.974Z,45.0706
2019-05-05T12:32:46.747Z,43.0411
2019-05-05T12:33:48.764Z,45.1621
2019-05-05T12:34:53.657Z,46.0090
2019-05-05T12:35:56.186Z,43.1708
2019-05-05T12:36:59.835Z,46.5019
2019-05-05T12:38:02.265Z,45.7786
2019-05-05T12:39:05.818Z,41.3748
2019-05-05T12:40:08.192Z,42.5284
2019-05-05T12:41:11.898Z,42.0890
2019-05-05T12:42:14.244Z,40.8362
2019-05-05T12:43:18.375Z,47.7577
2019-05-05T12:44:23.507Z,43.3844
2019-05-05T12:45:28.263Z,44.6174
2019-05-05T12:46:31.175Z,48.8594
2019-05-05T12:47:34.860Z,48.7266
2019-05-05T12:48:37.187Z,46.7308
2019-05-05T12:49:40.182Z,46.3462
2019-05-05T12:50:44.307Z,43.5279
2019-05-05T12:51:47.192Z,41.4527